createdAt,value
2024-03-02T17:57:31.676Z,12.30
2024-03-02T17:58:34.219Z,12.20
2024-03-02T17:59:38.618Z,12.20
2024-03-02T18:00:42.303Z,12.20
2024-03-02T18:01:44.789Z,12.20
2024-03-02T18:02:47.132Z,12.10
2024-03-02T18:03:50.074Z,12.10
2024-03-02T18:04:52.484Z,12.10
2024-03-02T18:05:54.787Z,12.10
2024-03-02T18:06:59.724Z,12.00
2024-03-02T18:08:02.502Z,12.00
2024-03-02T18:09:04.827Z,11.90
2024-03-02T18:10:08.320Z,11.90
2024-03-02T18:11:10.840Z,11.90
2024-03-02T18:12:13.486Z,11.80
2024-03-02T18:13:16.432Z,11.80
2024-03-02T18:14:19.365Z,11.80
2024-03-02T18:15:21.679Z,11.80
2024-03-02T18:16:24.083Z,11.70
2024-03-02T18:17:26.615Z,11.70
2024-03-02T18:18:29.308Z,11.70
2024-03-02T18:19:32.880Z,11.60
2024-03-02T18:20:35.625Z,11.60
2024-03-02T18:21:38.083Z,11.60
2024-03-02T18:22:40.989Z,11.60
2024-03-02T18:23:43.445Z,11.50
2024-03-02T18:24:46.857Z,11.40
2024-03-02T18:25:49.354Z,11.40
2024-03-02T18:26:52.027Z,11.40
2024-03-02T18:27:54.581Z,11.30
2024-03-02T18:28:56.992Z,11.20
2024-03-02T18:29:59.989Z,11.20
2024-03-02T18:31:02.755Z,11.10
2024-03-02T18:32:05.877Z,11.10
2024-03-02T18:33:08.503Z,11.10
2024-03-02T18:34:11.013Z,11.00
2024-03-02T18:35:13.369Z,11.00
2024-03-02T18:36:15.800Z,11.00
2024-03-02T18:37:22.943Z,10.90
2024-03-02T18:38:25.506Z,10.90
2024-03-02T18:39:27.879Z,10.90
2024-03-02T18:40:30.232Z,10.90
2024-03-02T18:41:32.969Z,10.80
2024-03-02T18:42:35.849Z,10.90
2024-03-02T18:43:38.263Z,10.80
2024-03-02T18:44:42.393Z,10.80
2024-03-02T18:45:44.836Z,10.80
2024-03-02T18:46:49.797Z,10.80
2024-03-02T18:47:52.633Z,10.80
2024-03-02T18:48:55.119Z,10.80
2024-03-02T18:49:58.526Z,10.80
2024-03-02T18:51:07.220Z,10.80
2024-03-02T18:52:09.624Z,10.80
2024-03-02T18:53:13.984Z,10.80
2024-03-02T18:54:17.454Z,10.70
2024-03-02T18:55:20.231Z,10.70
2024-03-02T18:56:22.922Z,10.80
2024-03-02T18:57:25.241Z,10.70
2024-03-02T18:58:27.882Z,10.70
2024-03-02T18:59:31.724Z,10.70
2024-03-02T19:00:34.331Z,10.60
2024-03-02T19:01:36.828Z,10.60
2024-03-02T19:02:39.333Z,10.60
2024-03-02T19:03:41.797Z,10.60
2024-03-02T19:04:44.218Z,10.60
2024-03-02T19:05:46.523Z,10.60
2024-03-02T19:06:49.062Z,10.60
2024-03-02T19:07:51.382Z,10.50
2024-03-02T19:08:53.712Z,10.50
2024-03-02T19:09:56.374Z,10.50
2024-03-02T19:10:58.875Z,10.50
2024-03-02T19:12:01.184Z,10.50
2024-03-02T19:13:03.633Z,10.50
2024-03-02T19:14:06.158Z,10.40
2024-03-02T19:15:08.807Z,10.40
2024-03-02T19:16:15.113Z,10.40
2024-03-02T19:17:17.527Z,10.40
2024-03-02T19:18:19.850Z,10.30
2024-03-02T19:19:22.484Z,10.30
2024-03-02T19:20:24.916Z,10.30
2024-03-02T19:21:27.350Z,10.30
2024-03-02T19:22:31.847Z,10.30
2024-03-02T19:23:40.031Z,10.30
2024-03-02T19:24:45.978Z,10.30
2024-03-02T19:25:48.604Z,10.20
2024-03-02T19:26:51.044Z,10.20
2024-03-02T19:27:53.462Z,10.20
2024-03-02T19:28:55.869Z,10.20
2024-03-02T19:29:58.329Z,10.10
2024-03-02T19:31:00.711Z,10.10
2024-03-02T19:32:08.389Z,10.10
2024-03-02T19:33:15.807Z,10.10
2024-03-02T19:34:24.063Z,10.10
2024-03-02T19:35:27.667Z,10.10
2024-03-02T19:36:30.118Z,10.10
2024-03-02T19:37:32.510Z,10.10
2024-03-02T19:38:36.293Z,10.10
2024-03-02T19:39:43.223Z,10.10
2024-03-02T19:40:45.642Z,10.10
2024-03-02T19:41:47.964Z,10.10
2024-03-02T19:42:50.335Z,10.10
2024-03-02T19:43:52.693Z,10.10
2024-03-02T19:44:55.405Z,10.10
2024-03-02T19:45:57.754Z,10.10
2024-03-02T19:47:00.948Z,10.10
2024-03-02T19:48:03.794Z,10.00
2024-03-02T19:49:06.227Z,10.00
2024-03-02T19:50:09.622Z,10.00
2024-03-02T19:51:12.632Z,10.00
2024-03-02T19:52:15.865Z,10.00
2024-03-02T19:53:18.261Z,10.00
2024-03-02T19:54:20.618Z,10.00
2024-03-02T19:55:30.395Z,10.00
2024-03-02T19:56:34.434Z,10.00
2024-03-02T19:57:42.211Z,10.00
2024-03-02T19:58:44.842Z,10.00
2024-03-02T19:59:47.799Z,10.00
2024-03-02T20:00:50.292Z,10.00
2024-03-02T20:01:52.846Z,10.00
2024-03-02T20:02:55.349Z,10.00
2024-03-02T20:03:57.769Z,9.90
2024-03-02T20:05:00.369Z,9.90
2024-03-02T20:06:02.790Z,9.90
2024-03-02T20:07:05.426Z,9.90
2024-03-02T20:08:11.023Z,9.90
2024-03-02T20:09:13.604Z,9.90
2024-03-02T20:10:16.555Z,9.90
2024-03-02T20:11:19.100Z,9.90
2024-03-02T20:12:21.555Z,9.90
2024-03-02T20:13:24.191Z,9.90
2024-03-02T20:14:26.775Z,9.90
2024-03-02T20:15:29.093Z,9.90
2024-03-02T20:16:31.507Z,9.90
2024-03-02T20:17:34.029Z,9.90
2024-03-02T20:18:36.783Z,9.90
2024-03-02T20:19:42.490Z,9.90
2024-03-02T20:20:44.840Z,9.90
2024-03-02T20:21:47.251Z,9.90
2024-03-02T20:22:49.616Z,9.90
2024-03-02T20:23:51.984Z,9.90
2024-03-02T20:24:54.372Z,9.80
2024-03-02T20:25:59.036Z,9.80
2024-03-02T20:27:01.482Z,9.80
2024-03-02T20:28:05.105Z,9.80
2024-03-02T20:29:07.447Z,9.80
2024-03-02T20:30:10.975Z,9.80
2024-03-02T20:31:15.433Z,9.80
2024-03-02T20:32:20.292Z,9.70
2024-03-02T20:33:23.427Z,9.70
2024-03-02T20:34:26.456Z,9.70
2024-03-02T20:35:29.304Z,9.70
2024-03-02T20:36:31.708Z,9.70
2024-03-02T20:37:34.207Z,9.70
2024-03-02T20:38:36.822Z,9.70
2024-03-02T20:39:40.101Z,9.70
2024-03-02T20:40:45.604Z,9.70
2024-03-02T20:41:48.831Z,9.70
2024-03-02T20:42:51.200Z,9.70
2024-03-02T20:43:53.606Z,9.70
2024-03-02T20:44:55.984Z,9.70
2024-03-02T20:46:00.413Z,9.80
2024-03-02T20:47:02.795Z,9.80
2024-03-02T20:48:05.464Z,9.70
2024-03-02T20:49:07.956Z,9.80
2024-03-02T20:50:10.568Z,9.80
2024-03-02T20:51:12.925Z,9.70
2024-03-02T20:52:15.417Z,9.70
2024-03-02T20:53:17.878Z,9.80
2024-03-02T20:54:20.220Z,9.80
2024-03-02T20:55:22.626Z,9.70
2024-03-02T20:56:27.381Z,9.70
2024-03-02T20:57:30.326Z,9.70
2024-03-02T20:58:32.690Z,9.70
2024-03-02T20:59:35.288Z,9.70
2024-03-02T21:00:37.666Z,9.70
2024-03-02T21:01:40.167Z,9.70
2024-03-02T21:02:42.602Z,9.70
2024-03-02T21:03:45.597Z,9.70
2024-03-02T21:04:48.837Z,9.70
2024-03-02T21:05:51.276Z,9.70
2024-03-02T21:06:53.735Z,9.80
2024-03-02T21:07:56.266Z,9.70
2024-03-02T21:08:58.769Z,9.70
2024-03-02T21:10:01.457Z,9.80
2024-03-02T21:11:04.886Z,9.80
2024-03-02T21:12:09.736Z,9.80
2024-03-02T21:13:12.242Z,9.80
2024-03-02T21:14:14.935Z,9.80
2024-03-02T21:15:17.731Z,9.90
2024-03-02T21:16:20.155Z,9.90
2024-03-02T21:17:23.346Z,9.90
2024-03-02T21:18:25.840Z,9.90
2024-03-02T21:19:28.205Z,9.80
2024-03-02T21:20:30.534Z,9.90
2024-03-02T21:21:32.936Z,9.90
2024-03-02T21:22:37.133Z,9.90
2024-03-02T21:23:39.483Z,9.90
2024-03-02T21:24:46.915Z,9.90
2024-03-02T21:25:49.407Z,9.90
2024-03-02T21:26:51.748Z,9.90
2024-03-02T21:27:54.582Z,9.90
2024-03-02T21:28:57.027Z,9.90
2024-03-02T21:30:00.645Z,9.90
2024-03-02T21:31:03.645Z,9.80
2024-03-02T21:32:06.407Z,9.80
2024-03-02T21:33:08.813Z,9.80
2024-03-02T21:34:11.295Z,9.80
2024-03-02T21:35:13.682Z,9.80
2024-03-02T21:36:15.968Z,9.80
2024-03-02T21:37:18.395Z,9.80
2024-03-02T21:38:20.890Z,9.80
2024-03-02T21:39:32.081Z,9.80
2024-03-02T21:40:41.751Z,9.80
2024-03-02T21:41:44.093Z,9.80
2024-03-02T21:42:46.563Z,9.80
2024-03-02T21:43:48.998Z,9.80
2024-03-02T21:44:51.617Z,9.80
2024-03-02T21:45:54.105Z,9.80
2024-03-02T21:46:56.488Z,9.80
2024-03-02T21:47:58.965Z,9.80
2024-03-02T21:49:01.423Z,9.80
2024-03-02T21:50:05.566Z,9.80
2024-03-02T21:51:08.628Z,9.80
2024-03-02T21:52:11.131Z,9.80
2024-03-02T21:53:14.213Z,9.80
2024-03-02T21:54:16.532Z,9.80
2024-03-02T21:55:19.017Z,9.80
2024-03-02T21:56:21.490Z,9.80
2024-03-02T21:57:26.102Z,9.80
2024-03-02T21:58:28.475Z,9.80
2024-03-02T21:59:30.955Z,9.70
2024-03-02T22:00:35.297Z,9.80
2024-03-02T22:01:38.370Z,9.70
2024-03-02T22:02:41.178Z,9.70
2024-03-02T22:03:46.554Z,9.70
2024-03-02T22:04:49.077Z,9.70
2024-03-02T22:05:52.155Z,9.70
2024-03-02T22:06:55.348Z,9.70
2024-03-02T22:07:58.323Z,9.70
2024-03-02T22:09:00.671Z,9.70
2024-03-02T22:10:03.395Z,9.70
2024-03-02T22:11:06.017Z,9.70
2024-03-02T22:12:08.455Z,9.70
2024-03-02T22:13:10.965Z,9.70
2024-03-02T22:14:13.371Z,9.60
2024-03-02T22:15:15.922Z,9.70
2024-03-02T22:16:18.462Z,9.60
2024-03-02T22:17:20.902Z,9.60
2024-03-02T22:18:23.316Z,9.60
2024-03-02T22:19:25.769Z,9.60
2024-03-02T22:20:28.104Z,9.60
2024-03-02T22:21:30.620Z,9.50
2024-03-02T22:22:32.981Z,9.60
2024-03-02T22:23:38.869Z,9.60
2024-03-02T22:24:42.938Z,9.50
2024-03-02T22:25:45.650Z,9.50
2024-03-02T22:26:48.068Z,9.50
2024-03-02T22:27:56.189Z,9.50
2024-03-02T22:28:58.765Z,9.50
2024-03-02T22:30:01.106Z,9.50
2024-03-02T22:31:03.641Z,9.50
2024-03-02T22:32:06.919Z,9.50
2024-03-02T22:33:09.432Z,9.50
2024-03-02T22:34:12.249Z,9.50
2024-03-02T22:35:14.793Z,9.50
2024-03-02T22:36:17.184Z,9.50
2024-03-02T22:37:19.736Z,9.50
2024-03-02T22:38:22.163Z,9.50
2024-03-02T22:39:24.731Z,9.50
2024-03-02T22:40:27.168Z,9.50
2024-03-02T22:41:29.722Z,9.50
2024-03-02T22:42:33.832Z,9.50
2024-03-02T22:43:36.985Z,9.40
2024-03-02T22:44:39.373Z,9.40
2024-03-02T22:45:41.751Z,9.40
2024-03-02T22:46:44.109Z,9.40
2024-03-02T22:47:46.692Z,9.40
2024-03-02T22:48:49.191Z,9.40
2024-03-02T22:49:56.837Z,9.40
2024-03-02T22:50:59.823Z,9.40
2024-03-02T22:52:02.221Z,9.40
2024-03-02T22:53:04.778Z,9.40
2024-03-02T22:54:07.186Z,9.40
2024-03-02T22:55:11.498Z,9.40
2024-03-02T22:56:13.900Z,9.40
2024-03-02T22:57:18.974Z,9.40
2024-03-02T22:58:21.481Z,9.40
2024-03-02T22:59:24.268Z,9.40
2024-03-02T23:00:37.089Z,9.40
2024-03-02T23:01:42.025Z,9.40
2024-03-02T23:02:44.640Z,9.40
2024-03-02T23:03:47.125Z,9.30
2024-03-02T23:04:49.566Z,9.30
2024-03-02T23:05:52.007Z,9.40
2024-03-02T23:06:54.410Z,9.40
2024-03-02T23:07:57.641Z,9.40
2024-03-02T23:09:00.082Z,9.40
2024-03-02T23:10:02.493Z,9.30
2024-03-02T23:11:06.029Z,9.40
2024-03-02T23:12:08.395Z,9.40
2024-03-02T23:13:10.897Z,9.30
2024-03-02T23:14:13.462Z,9.30
2024-03-02T23:15:16.126Z,9.30
2024-03-02T23:16:18.554Z,9.30
2024-03-02T23:17:20.893Z,9.30
2024-03-02T23:18:23.507Z,9.30
2024-03-02T23:19:25.961Z,9.30
2024-03-02T23:20:28.321Z,9.30
2024-03-02T23:21:30.717Z,9.20
2024-03-02T23:22:33.076Z,9.30
2024-03-02T23:23:35.477Z,9.30
2024-03-02T23:24:37.967Z,9.30
2024-03-02T23:25:40.309Z,9.20
2024-03-02T23:26:43.852Z,9.30
2024-03-02T23:27:46.401Z,9.30
2024-03-02T23:28:48.766Z,9.30
2024-03-02T23:29:51.219Z,9.30
2024-03-02T23:30:53.583Z,9.30
2024-03-02T23:31:56.023Z,9.30
2024-03-02T23:32:59.010Z,9.30
2024-03-02T23:34:04.964Z,9.30
2024-03-02T23:35:08.172Z,9.30
2024-03-02T23:36:10.529Z,9.30
2024-03-02T23:37:12.967Z,9.30
2024-03-02T23:38:15.394Z,9.30
2024-03-02T23:39:37.810Z,9.30
2024-03-02T23:41:03.804Z,9.30
2024-03-02T23:42:06.480Z,9.30
2024-03-02T23:43:10.102Z,9.20
2024-03-02T23:44:14.782Z,9.30
2024-03-02T23:45:17.360Z,9.20
2024-03-02T23:46:19.870Z,9.20
2024-03-02T23:47:22.251Z,9.20
2024-03-02T23:48:24.731Z,9.30
2024-03-02T23:49:27.573Z,9.30
2024-03-02T23:50:29.990Z,9.20
2024-03-02T23:51:32.458Z,9.20
2024-03-02T23:52:35.038Z,9.20
2024-03-02T23:53:37.445Z,9.20
2024-03-02T23:54:39.882Z,9.20
2024-03-02T23:55:47.827Z,9.20
2024-03-02T23:56:54.791Z,9.20
2024-03-02T23:57:58.092Z,9.20
2024-03-02T23:59:03.665Z,9.20
